createdAt,value
2019-02-14T05:32:22.852Z,0.30
2019-02-14T05:34:52.431Z,0.40
2019-02-14T05:37:20.894Z,0.40
2019-02-14T05:43:18.320Z,0.40
2019-02-14T05:45:46.909Z,0.40
2019-02-14T05:48:15.351Z,0.40
2019-02-14T05:50:43.790Z,0.40
2019-02-14T05:53:12.371Z,0.50
2019-02-14T05:59:22.122Z,0.50
2019-02-14T06:05:31.789Z,0.50
2019-02-14T06:08:00.304Z,0.50
2019-02-14T06:10:28.753Z,0.50
2019-02-14T06:16:25.844Z,0.30
2019-02-14T06:18:54.611Z,0.30
2019-02-14T06:25:05.442Z,0.30
2019-02-14T06:27:33.911Z,0.30
2019-02-14T06:30:02.359Z,0.30
2019-02-14T06:32:31.011Z,0.20
2019-02-14T06:38:40.474Z,0.30
2019-02-14T06:41:08.926Z,0.30
2019-02-14T06:43:37.723Z,0.30
2019-02-14T06:46:06.287Z,0.30
2019-02-14T06:48:34.737Z,0.30
2019-02-14T06:51:03.589Z,0.30
2019-02-14T06:53:32.099Z,0.30
2019-02-14T06:56:00.608Z,0.30
2019-02-14T06:58:29.058Z,0.30
2019-02-14T07:04:26.551Z,0.30
2019-02-14T07:06:55.022Z,0.30
2019-02-14T07:09:23.548Z,0.30
2019-02-14T07:11:51.984Z,0.20
2019-02-14T07:14:20.707Z,0.20
2019-02-14T07:16:49.151Z,0.10
2019-02-14T07:19:17.930Z,0.20
2019-02-14T07:21:46.922Z,0.20
2019-02-14T07:24:15.447Z,0.20
2019-02-14T07:26:43.903Z,0.20
2019-02-14T07:29:12.395Z,0.20
2019-02-14T07:31:40.843Z,0.20
2019-02-14T07:34:09.573Z,0.30
2019-02-14T07:36:38.108Z,0.30
2019-02-14T07:39:07.287Z,0.30
2019-02-14T07:41:35.739Z,0.30
2019-02-14T07:44:04.295Z,0.40
2019-02-14T07:50:14.294Z,0.40
2019-02-14T07:52:42.726Z,0.40
2019-02-14T07:55:12.474Z,0.40
2019-02-14T07:57:41.458Z,0.50
2019-02-14T08:00:12.911Z,0.50
2019-02-14T08:06:10.623Z,0.60
2019-02-14T08:08:39.164Z,0.70
2019-02-14T08:11:07.594Z,0.70
2019-02-14T08:13:36.047Z,0.80
2019-02-14T08:16:04.529Z,0.90
2019-02-14T08:18:32.985Z,0.90
2019-02-14T08:21:01.435Z,1.00
2019-02-14T08:23:30.370Z,1.00
2019-02-14T08:25:58.803Z,1.00
2019-02-14T08:28:27.541Z,1.00
2019-02-14T08:30:56.019Z,1.10
2019-02-14T08:33:24.462Z,1.20
2019-02-14T08:35:52.909Z,1.20
2019-02-14T08:38:21.396Z,1.30
2019-02-14T08:40:49.830Z,1.30
2019-02-14T08:43:18.571Z,1.40
2019-02-14T08:45:47.410Z,1.50
2019-02-14T08:48:15.993Z,1.60
2019-02-14T08:50:44.502Z,1.70
2019-02-14T08:53:12.988Z,1.80
2019-02-14T08:55:41.443Z,1.80
2019-02-14T09:01:39.104Z,1.80
2019-02-14T09:04:07.647Z,1.90
2019-02-14T09:06:36.189Z,1.90
2019-02-14T09:09:05.559Z,2.00
2019-02-14T09:11:34.436Z,2.00
2019-02-14T09:14:02.888Z,2.00
2019-02-14T09:16:31.329Z,2.10
2019-02-14T09:18:59.843Z,2.20
2019-02-14T09:21:28.292Z,2.30
2019-02-14T09:23:56.747Z,2.30
2019-02-14T09:26:25.547Z,2.30
2019-02-14T09:28:54.008Z,2.40
2019-02-14T09:31:22.443Z,2.50
2019-02-14T09:33:50.960Z,2.70
2019-02-14T09:36:19.394Z,2.70
2019-02-14T09:38:47.836Z,2.80
2019-02-14T09:41:16.596Z,2.90
2019-02-14T09:43:45.039Z,3.00
2019-02-14T09:46:13.475Z,3.10
2019-02-14T09:52:10.798Z,3.20
2019-02-14T09:54:39.351Z,3.20
2019-02-14T09:57:07.867Z,3.20
2019-02-14T09:59:36.332Z,3.30
2019-02-14T10:02:04.941Z,3.30
2019-02-14T10:04:33.395Z,3.40
2019-02-14T10:10:31.071Z,3.40
2019-02-14T10:12:59.553Z,3.40
2019-02-14T10:15:28.015Z,3.40
2019-02-14T10:17:56.834Z,3.50
2019-02-14T10:20:25.319Z,3.50
2019-02-14T10:22:53.786Z,3.60
2019-02-14T10:25:22.291Z,3.60
2019-02-14T10:31:19.949Z,3.80
2019-02-14T10:33:48.419Z,4.00
2019-02-14T10:36:16.864Z,4.10
2019-02-14T10:38:45.320Z,4.20
2019-02-14T10:41:13.804Z,4.20
2019-02-14T10:43:48.670Z,4.40
2019-02-14T10:46:12.425Z,4.40
2019-02-14T10:48:40.923Z,4.50
2019-02-14T10:54:50.438Z,4.60
2019-02-14T10:57:18.878Z,4.80
2019-02-14T10:59:47.340Z,4.80
2019-02-14T11:02:15.883Z,4.90
2019-02-14T11:08:31.525Z,5.00
2019-02-14T11:14:36.937Z,5.20
2019-02-14T11:17:05.999Z,5.30
2019-02-14T11:23:02.449Z,5.40
2019-02-14T11:28:59.124Z,5.50
2019-02-14T11:34:58.429Z,5.60
2019-02-14T11:40:34.572Z,5.80
2019-02-14T11:46:32.011Z,6.10
2019-02-14T11:49:00.448Z,6.20
2019-02-14T11:51:28.912Z,6.20
2019-02-14T11:53:57.356Z,6.30
2019-02-14T11:56:25.879Z,6.40
2019-02-14T11:58:54.367Z,6.50
2019-02-14T12:05:04.335Z,6.70
2019-02-14T12:07:32.793Z,6.80
2019-02-14T12:10:01.255Z,6.90
2019-02-14T12:15:58.434Z,7.00
2019-02-14T12:18:26.983Z,7.10
2019-02-14T12:20:55.434Z,7.20
2019-02-14T12:23:23.894Z,7.20
2019-02-14T12:25:52.436Z,7.30
2019-02-14T12:28:20.873Z,7.40
2019-02-14T12:30:49.332Z,7.50
2019-02-14T12:33:17.807Z,7.60
2019-02-14T12:35:46.307Z,7.70
2019-02-14T12:41:18.971Z,7.90
2019-02-14T12:43:47.463Z,8.00
2019-02-14T12:46:15.979Z,8.10
2019-02-14T12:48:44.428Z,8.30
2019-02-14T12:51:12.908Z,8.60
2019-02-14T12:57:22.623Z,9.10
2019-02-14T12:59:51.133Z,9.50
2019-02-14T13:02:19.578Z,9.70
2019-02-14T13:04:48.125Z,9.90
2019-02-14T13:07:16.908Z,9.90
2019-02-14T13:09:45.348Z,9.70
2019-02-14T13:12:13.857Z,9.50
2019-02-14T13:26:30.687Z,8.50
2019-02-14T13:28:59.151Z,8.40
2019-02-14T13:31:31.847Z,8.40
2019-02-14T13:33:58.134Z,8.40
2019-02-14T13:36:26.753Z,8.30
2019-02-14T13:38:55.205Z,8.30
2019-02-14T13:41:30.928Z,8.30
2019-02-14T13:43:54.216Z,8.30
2019-02-14T13:46:22.737Z,8.20
2019-02-14T13:48:51.188Z,8.30
2019-02-14T13:51:19.653Z,8.20
2019-02-14T13:53:48.481Z,8.30
2019-02-14T13:56:16.991Z,8.30
2019-02-14T14:02:14.594Z,8.30
2019-02-14T14:08:11.336Z,8.50
2019-02-14T14:14:07.861Z,8.60
2019-02-14T14:20:06.988Z,8.70
2019-02-14T14:26:04.507Z,8.70
2019-02-14T14:28:33.295Z,8.90
2019-02-14T14:31:01.773Z,9.00
2019-02-14T14:33:30.211Z,9.10
2019-02-14T14:39:27.420Z,9.30
2019-02-14T14:45:13.805Z,9.60
2019-02-14T14:51:11.661Z,9.80
2019-02-14T14:53:41.127Z,10.20
2019-02-14T14:59:51.516Z,10.40
2019-02-14T15:02:19.981Z,10.70
2019-02-14T15:04:48.499Z,10.80
2019-02-14T15:10:46.059Z,11.10
2019-02-14T15:16:42.982Z,10.60
2019-02-14T15:19:11.837Z,10.50
2019-02-14T15:21:40.555Z,10.50
2019-02-14T15:27:37.945Z,10.70
2019-02-14T15:33:35.435Z,10.40
2019-02-14T15:39:32.868Z,10.20
2019-02-14T15:45:29.868Z,10.50
2019-02-14T15:51:27.319Z,10.70
2019-02-14T15:53:55.876Z,10.90
2019-02-14T16:00:11.821Z,10.80
2019-02-14T16:06:21.583Z,10.80
2019-02-14T16:08:50.881Z,10.70
2019-02-14T16:11:19.333Z,10.50
2019-02-14T16:13:47.907Z,10.50
2019-02-14T16:16:16.378Z,10.40
2019-02-14T16:18:46.697Z,10.30
2019-02-14T16:21:15.437Z,10.30
2019-02-14T16:23:44.160Z,10.40
2019-02-14T16:26:13.083Z,10.40
2019-02-14T16:32:11.453Z,10.20
2019-02-14T16:38:01.378Z,9.60
2019-02-14T16:43:59.414Z,8.80
2019-02-14T16:49:32.269Z,8.30
2019-02-14T16:55:29.642Z,7.90
2019-02-14T17:01:26.707Z,7.50
2019-02-14T17:03:55.164Z,7.40
2019-02-14T17:06:23.880Z,7.30
2019-02-14T17:08:52.360Z,7.20
2019-02-14T17:11:20.859Z,7.10
2019-02-14T17:17:26.204Z,6.90
2019-02-14T17:19:48.172Z,6.70
2019-02-14T17:22:16.651Z,6.60
2019-02-14T17:24:45.464Z,6.50
2019-02-14T17:30:42.297Z,6.40
2019-02-14T17:33:10.846Z,6.30
2019-02-14T17:35:39.409Z,6.20
2019-02-14T17:38:08.260Z,6.10
2019-02-14T17:40:45.629Z,6.10
2019-02-14T17:43:06.941Z,6.00
2019-02-14T17:49:04.303Z,5.90
2019-02-14T17:55:01.651Z,5.80
2019-02-14T18:00:59.253Z,5.90
2019-02-14T18:03:27.708Z,5.90
2019-02-14T18:05:56.170Z,6.10
2019-02-14T18:08:24.615Z,6.30
2019-02-14T18:10:55.144Z,6.30
2019-02-14T18:13:23.606Z,6.30
2019-02-14T18:19:33.334Z,6.20
2019-02-14T18:22:02.091Z,6.10
2019-02-14T18:24:30.564Z,6.10
2019-02-14T18:26:59.049Z,6.00
2019-02-14T18:29:27.584Z,5.80
2019-02-14T18:31:56.046Z,5.70
2019-02-14T18:34:24.586Z,5.60
2019-02-14T18:36:53.334Z,5.60
2019-02-14T18:39:21.772Z,5.50
2019-02-14T18:41:50.716Z,5.40
2019-02-14T18:44:19.155Z,5.40
2019-02-14T18:46:47.666Z,5.20
2019-02-14T18:49:16.142Z,5.20
2019-02-14T18:51:44.607Z,5.20
2019-02-14T18:54:13.160Z,5.10
2019-02-14T18:56:41.649Z,5.00
2019-02-14T18:59:10.233Z,4.90
2019-02-14T19:01:38.693Z,4.90
2019-02-14T19:04:07.144Z,4.80
2019-02-14T19:06:35.597Z,4.70
2019-02-14T19:12:32.960Z,4.60
2019-02-14T19:18:30.457Z,4.60
2019-02-14T19:20:59.005Z,4.50
2019-02-14T19:27:08.835Z,4.50
2019-02-14T19:29:37.292Z,4.30
2019-02-14T19:32:05.843Z,4.30
2019-02-14T19:34:34.710Z,4.20
2019-02-14T19:40:44.540Z,4.20
2019-02-14T19:43:13.402Z,4.10
2019-02-14T19:49:10.864Z,4.10
2019-02-14T19:51:40.304Z,4.10
2019-02-14T19:57:25.904Z,4.10
2019-02-14T20:03:35.427Z,4.10
2019-02-14T20:09:45.262Z,4.10
2019-02-14T20:15:54.872Z,4.20
2019-02-14T20:18:23.346Z,4.30
2019-02-14T20:20:51.794Z,4.30
2019-02-14T20:23:20.359Z,4.30
2019-02-14T20:29:05.885Z,4.30
